sensor_id;sensor_type;location;lat;lon;timestamp;P1;durP1;ratioP1;P2;durP2;ratioP2
37203;SDS011;23098;48.054;10.636;2022-09-29T00:00:03;1.17;;;1.08;;
37203;SDS011;23098;48.054;10.636;2022-09-29T00:02:29;1.40;;;1.23;;
37203;SDS011;23098;48.054;10.636;2022-09-29T00:04:54;1.80;;;1.25;;
37203;SDS011;23098;48.054;10.636;2022-09-29T00:07:20;3.33;;;2.13;;
37203;SDS011;23098;48.054;10.636;2022-09-29T00:09:47;5.18;;;3.20;;
37203;SDS011;23098;48.054;10.636;2022-09-29T00:12:12;3.55;;;2.92;;
37203;SDS011;23098;48.054;10.636;2022-09-29T00:14:38;3.20;;;2.60;;
37203;SDS011;23098;48.054;10.636;2022-09-29T00:17:05;3.17;;;2.40;;
37203;SDS011;23098;48.054;10.636;2022-09-29T00:19:33;3.13;;;2.47;;
37203;SDS011;23098;48.054;10.636;2022-09-29T00:22:08;3.22;;;2.20;;
37203;SDS011;23098;48.054;10.636;2022-09-29T00:24:34;3.50;;;2.50;;
37203;SDS011;23098;48.054;10.636;2022-09-29T00:26:59;5.28;;;2.42;;
37203;SDS011;23098;48.054;10.636;2022-09-29T00:29:26;2.88;;;2.33;;
37203;SDS011;23098;48.054;10.636;2022-09-29T00:31:51;3.30;;;2.40;;
37203;SDS011;23098;48.054;10.636;2022-09-29T00:34:17;2.55;;;2.30;;
37203;SDS011;23098;48.054;10.636;2022-09-29T00:36:42;2.88;;;2.28;;
37203;SDS011;23098;48.054;10.636;2022-09-29T00:39:08;2.60;;;2.28;;
37203;SDS011;23098;48.054;10.636;2022-09-29T00:41:34;2.63;;;2.20;;
37203;SDS011;23098;48.054;10.636;2022-09-29T00:44:03;3.20;;;2.03;;
37203;SDS011;23098;48.054;10.636;2022-09-29T00:49:46;3.17;;;2.28;;
37203;SDS011;23098;48.054;10.636;2022-09-29T00:54:27;2.92;;;2.30;;
37203;SDS011;23098;48.054;10.636;2022-09-29T00:56:57;3.30;;;2.33;;
37203;SDS011;23098;48.054;10.636;2022-09-29T00:59:29;3.28;;;2.25;;
37203;SDS011;23098;48.054;10.636;2022-09-29T01:01:59;5.25;;;2.90;;
37203;SDS011;23098;48.054;10.636;2022-09-29T01:04:25;3.72;;;2.70;;
37203;SDS011;23098;48.054;10.636;2022-09-29T01:06:52;3.13;;;2.58;;
37203;SDS011;23098;48.054;10.636;2022-09-29T01:09:30;3.45;;;2.30;;
37203;SDS011;23098;48.054;10.636;2022-09-29T01:11:59;3.25;;;2.67;;
37203;SDS011;23098;48.054;10.636;2022-09-29T01:14:26;3.08;;;2.33;;
37203;SDS011;23098;48.054;10.636;2022-09-29T01:16:53;2.45;;;2.20;;
37203;SDS011;23098;48.054;10.636;2022-09-29T01:19:29;3.08;;;2.00;;
37203;SDS011;23098;48.054;10.636;2022-09-29T01:22:30;1.63;;;1.52;;
37203;SDS011;23098;48.054;10.636;2022-09-29T01:31:28;4.40;;;2.40;;
37203;SDS011;23098;48.054;10.636;2022-09-29T01:36:54;4.85;;;3.70;;
37203;SDS011;23098;48.054;10.636;2022-09-29T01:42:03;8.07;;;4.43;;
37203;SDS011;23098;48.054;10.636;2022-09-29T01:44:45;7.18;;;5.07;;
37203;SDS011;23098;48.054;10.636;2022-09-29T01:47:24;9.45;;;5.78;;
37203;SDS011;23098;48.054;10.636;2022-09-29T01:49:58;6.93;;;5.13;;
37203;SDS011;23098;48.054;10.636;2022-09-29T01:52:28;7.65;;;5.13;;
37203;SDS011;23098;48.054;10.636;2022-09-29T01:54:59;6.30;;;3.90;;
37203;SDS011;23098;48.054;10.636;2022-09-29T01:57:35;4.93;;;3.83;;
37203;SDS011;23098;48.054;10.636;2022-09-29T02:00:11;7.75;;;3.90;;
37203;SDS011;23098;48.054;10.636;2022-09-29T02:08:01;3.95;;;3.10;;
37203;SDS011;23098;48.054;10.636;2022-09-29T02:10:35;3.55;;;2.75;;
37203;SDS011;23098;48.054;10.636;2022-09-29T02:13:21;5.68;;;4.07;;
37203;SDS011;23098;48.054;10.636;2022-09-29T02:15:48;10.35;;;7.63;;
37203;SDS011;23098;48.054;10.636;2022-09-29T02:18:20;15.95;;;11.00;;
37203;SDS011;23098;48.054;10.636;2022-09-29T02:20:48;9.55;;;6.88;;
37203;SDS011;23098;48.054;10.636;2022-09-29T02:23:15;8.57;;;5.80;;
37203;SDS011;23098;48.054;10.636;2022-09-29T02:25:41;10.63;;;6.28;;
37203;SDS011;23098;48.054;10.636;2022-09-29T02:28:10;4.93;;;3.63;;
37203;SDS011;23098;48.054;10.636;2022-09-29T02:30:37;5.85;;;3.35;;
37203;SDS011;23098;48.054;10.636;2022-09-29T02:33:02;4.10;;;3.20;;
37203;SDS011;23098;48.054;10.636;2022-09-29T02:35:34;4.03;;;3.35;;
37203;SDS011;23098;48.054;10.636;2022-09-29T02:38:11;5.97;;;3.90;;
37203;SDS011;23098;48.054;10.636;2022-09-29T02:40:46;5.63;;;4.18;;
37203;SDS011;23098;48.054;10.636;2022-09-29T02:49:22;3.63;;;2.83;;
37203;SDS011;23098;48.054;10.636;2022-09-29T02:51:58;4.75;;;3.22;;
37203;SDS011;23098;48.054;10.636;2022-09-29T03:02:40;6.13;;;2.63;;
37203;SDS011;23098;48.054;10.636;2022-09-29T03:05:08;3.70;;;3.10;;
37203;SDS011;23098;48.054;10.636;2022-09-29T03:07:36;3.92;;;3.13;;
37203;SDS011;23098;48.054;10.636;2022-09-29T03:10:02;4.40;;;3.17;;
37203;SDS011;23098;48.054;10.636;2022-09-29T03:12:29;3.30;;;2.70;;
37203;SDS011;23098;48.054;10.636;2022-09-29T03:14:54;3.97;;;2.90;;
37203;SDS011;23098;48.054;10.636;2022-09-29T03:17:20;5.25;;;2.92;;
37203;SDS011;23098;48.054;10.636;2022-09-29T03:19:46;4.65;;;3.00;;
37203;SDS011;23098;48.054;10.636;2022-09-29T03:22:11;3.47;;;3.00;;
37203;SDS011;23098;48.054;10.636;2022-09-29T03:24:37;3.03;;;2.25;;
37203;SDS011;23098;48.054;10.636;2022-09-29T03:27:03;3.28;;;2.60;;
37203;SDS011;23098;48.054;10.636;2022-09-29T03:29:28;2.70;;;2.22;;
37203;SDS011;23098;48.054;10.636;2022-09-29T03:31:54;4.03;;;2.45;;
37203;SDS011;23098;48.054;10.636;2022-09-29T03:34:20;3.33;;;2.17;;
37203;SDS011;23098;48.054;10.636;2022-09-29T03:36:45;3.15;;;2.20;;
37203;SDS011;23098;48.054;10.636;2022-09-29T03:39:11;2.63;;;2.42;;
37203;SDS011;23098;48.054;10.636;2022-09-29T03:41:36;3.17;;;2.35;;
37203;SDS011;23098;48.054;10.636;2022-09-29T03:44:02;2.88;;;2.20;;
37203;SDS011;23098;48.054;10.636;2022-09-29T03:46:27;2.67;;;2.13;;
37203;SDS011;23098;48.054;10.636;2022-09-29T03:48:53;3.15;;;2.35;;
37203;SDS011;23098;48.054;10.636;2022-09-29T03:51:19;3.40;;;2.30;;
37203;SDS011;23098;48.054;10.636;2022-09-29T03:53:44;5.18;;;2.92;;
37203;SDS011;23098;48.054;10.636;2022-09-29T03:56:10;2.92;;;2.53;;
37203;SDS011;23098;48.054;10.636;2022-09-29T03:58:35;2.88;;;2.40;;
37203;SDS011;23098;48.054;10.636;2022-09-29T04:01:01;2.65;;;2.25;;
37203;SDS011;23098;48.054;10.636;2022-09-29T04:03:27;3.30;;;2.40;;
37203;SDS011;23098;48.054;10.636;2022-09-29T04:05:52;3.30;;;2.45;;
37203;SDS011;23098;48.054;10.636;2022-09-29T04:08:18;3.80;;;2.63;;
37203;SDS011;23098;48.054;10.636;2022-09-29T04:10:46;4.72;;;2.60;;
37203;SDS011;23098;48.054;10.636;2022-09-29T04:13:12;2.70;;;2.50;;
37203;SDS011;23098;48.054;10.636;2022-09-29T04:15:38;4.35;;;2.42;;
37203;SDS011;23098;48.054;10.636;2022-09-29T04:18:04;3.75;;;2.63;;
37203;SDS011;23098;48.054;10.636;2022-09-29T04:20:30;3.03;;;2.20;;
37203;SDS011;23098;48.054;10.636;2022-09-29T04:22:56;5.05;;;3.30;;
37203;SDS011;23098;48.054;10.636;2022-09-29T04:25:22;3.33;;;2.70;;
37203;SDS011;23098;48.054;10.636;2022-09-29T04:27:48;2.55;;;2.35;;
37203;SDS011;23098;48.054;10.636;2022-09-29T04:30:14;2.55;;;2.35;;
37203;SDS011;23098;48.054;10.636;2022-09-29T04:32:40;2.65;;;2.30;;
37203;SDS011;23098;48.054;10.636;2022-09-29T04:35:06;3.60;;;2.30;;
37203;SDS011;23098;48.054;10.636;2022-09-29T04:37:32;2.65;;;2.20;;
37203;SDS011;23098;48.054;10.636;2022-09-29T04:39:58;4.15;;;2.28;;
37203;SDS011;23098;48.054;10.636;2022-09-29T04:42:23;2.60;;;2.40;;
37203;SDS011;23098;48.054;10.636;2022-09-29T04:44:49;4.25;;;2.00;;
37203;SDS011;23098;48.054;10.636;2022-09-29T04:47:15;2.50;;;2.17;;
37203;SDS011;23098;48.054;10.636;2022-09-29T04:49:41;3.90;;;2.80;;
37203;SDS011;23098;48.054;10.636;2022-09-29T04:52:06;2.50;;;2.20;;
37203;SDS011;23098;48.054;10.636;2022-09-29T04:54:37;2.80;;;1.90;;
37203;SDS011;23098;48.054;10.636;2022-09-29T04:57:03;3.33;;;2.47;;
37203;SDS011;23098;48.054;10.636;2022-09-29T04:59:28;3.92;;;2.20;;
37203;SDS011;23098;48.054;10.636;2022-09-29T05:01:54;2.55;;;1.98;;
37203;SDS011;23098;48.054;10.636;2022-09-29T05:04:20;3.00;;;1.90;;
37203;SDS011;23098;48.054;10.636;2022-09-29T05:06:45;1.73;;;1.50;;
37203;SDS011;23098;48.054;10.636;2022-09-29T05:09:11;2.78;;;2.20;;
37203;SDS011;23098;48.054;10.636;2022-09-29T05:11:37;2.15;;;1.88;;
37203;SDS011;23098;48.054;10.636;2022-09-29T05:14:03;1.60;;;1.50;;
37203;SDS011;23098;48.054;10.636;2022-09-29T05:16:29;2.35;;;1.67;;
37203;SDS011;23098;48.054;10.636;2022-09-29T05:18:55;3.33;;;1.60;;
37203;SDS011;23098;48.054;10.636;2022-09-29T05:21:20;3.67;;;1.52;;
37203;SDS011;23098;48.054;10.636;2022-09-29T05:23:46;2.10;;;1.30;;
37203;SDS011;23098;48.054;10.636;2022-09-29T05:26:11;1.70;;;1.50;;
37203;SDS011;23098;48.054;10.636;2022-09-29T05:28:41;1.60;;;1.23;;
37203;SDS011;23098;48.054;10.636;2022-09-29T05:31:07;1.70;;;1.40;;
37203;SDS011;23098;48.054;10.636;2022-09-29T05:33:34;1.92;;;1.48;;
37203;SDS011;23098;48.054;10.636;2022-09-29T05:36:00;1.75;;;1.48;;
37203;SDS011;23098;48.054;10.636;2022-09-29T05:38:32;1.88;;;1.67;;
37203;SDS011;23098;48.054;10.636;2022-09-29T05:41:02;2.47;;;1.50;;
37203;SDS011;23098;48.054;10.636;2022-09-29T05:43:32;1.70;;;1.50;;
37203;SDS011;23098;48.054;10.636;2022-09-29T05:45:58;1.70;;;1.60;;
37203;SDS011;23098;48.054;10.636;2022-09-29T05:48:27;2.08;;;1.85;;
37203;SDS011;23098;48.054;10.636;2022-09-29T05:50:55;2.35;;;2.00;;
37203;SDS011;23098;48.054;10.636;2022-09-29T05:53:21;3.10;;;2.47;;
37203;SDS011;23098;48.054;10.636;2022-09-29T05:55:46;4.25;;;3.17;;
37203;SDS011;23098;48.054;10.636;2022-09-29T05:58:12;2.75;;;2.30;;
37203;SDS011;23098;48.054;10.636;2022-09-29T06:00:37;3.45;;;1.98;;
37203;SDS011;23098;48.054;10.636;2022-09-29T06:03:04;2.38;;;1.40;;
37203;SDS011;23098;48.054;10.636;2022-09-29T06:05:30;1.70;;;1.40;;
37203;SDS011;23098;48.054;10.636;2022-09-29T06:07:55;1.90;;;1.70;;
37203;SDS011;23098;48.054;10.636;2022-09-29T06:10:21;2.28;;;1.90;;
37203;SDS011;23098;48.054;10.636;2022-09-29T06:12:47;2.58;;;1.60;;
37203;SDS011;23098;48.054;10.636;2022-09-29T06:15:12;2.83;;;1.70;;
37203;SDS011;23098;48.054;10.636;2022-09-29T06:17:38;1.60;;;1.50;;
37203;SDS011;23098;48.054;10.636;2022-09-29T06:20:04;3.33;;;1.83;;
37203;SDS011;23098;48.054;10.636;2022-09-29T06:22:33;2.60;;;1.90;;
37203;SDS011;23098;48.054;10.636;2022-09-29T06:25:00;3.63;;;2.08;;
37203;SDS011;23098;48.054;10.636;2022-09-29T06:27:28;3.63;;;2.67;;
37203;SDS011;23098;48.054;10.636;2022-09-29T06:30:06;4.30;;;2.70;;
37203;SDS011;23098;48.054;10.636;2022-09-29T06:32:32;3.50;;;2.58;;
37203;SDS011;23098;48.054;10.636;2022-09-29T06:34:58;2.90;;;2.40;;
37203;SDS011;23098;48.054;10.636;2022-09-29T06:45:55;2.13;;;1.75;;
37203;SDS011;23098;48.054;10.636;2022-09-29T06:48:21;4.22;;;1.60;;
37203;SDS011;23098;48.054;10.636;2022-09-29T06:50:47;2.15;;;1.70;;
37203;SDS011;23098;48.054;10.636;2022-09-29T06:53:12;2.38;;;1.90;;
37203;SDS011;23098;48.054;10.636;2022-09-29T06:55:38;2.30;;;1.58;;
37203;SDS011;23098;48.054;10.636;2022-09-29T06:58:04;1.98;;;1.70;;
37203;SDS011;23098;48.054;10.636;2022-09-29T07:00:31;2.15;;;1.63;;
37203;SDS011;23098;48.054;10.636;2022-09-29T07:02:57;2.08;;;1.70;;
37203;SDS011;23098;48.054;10.636;2022-09-29T07:05:23;2.30;;;1.80;;
37203;SDS011;23098;48.054;10.636;2022-09-29T07:07:48;3.47;;;1.90;;
37203;SDS011;23098;48.054;10.636;2022-09-29T07:10:14;2.55;;;1.80;;
37203;SDS011;23098;48.054;10.636;2022-09-29T07:12:40;2.50;;;1.75;;
37203;SDS011;23098;48.054;10.636;2022-09-29T07:15:11;4.70;;;1.92;;
37203;SDS011;23098;48.054;10.636;2022-09-29T07:17:37;1.90;;;1.67;;
37203;SDS011;23098;48.054;10.636;2022-09-29T07:20:02;2.58;;;1.90;;
37203;SDS011;23098;48.054;10.636;2022-09-29T07:22:28;2.38;;;1.88;;
37203;SDS011;23098;48.054;10.636;2022-09-29T07:24:54;6.15;;;2.58;;
37203;SDS011;23098;48.054;10.636;2022-09-29T07:27:19;3.08;;;2.00;;
37203;SDS011;23098;48.054;10.636;2022-09-29T07:29:48;4.50;;;1.98;;
37203;SDS011;23098;48.054;10.636;2022-09-29T07:32:17;3.30;;;2.30;;
37203;SDS011;23098;48.054;10.636;2022-09-29T07:35:02;3.85;;;1.95;;
37203;SDS011;23098;48.054;10.636;2022-09-29T07:37:28;3.53;;;2.10;;
37203;SDS011;23098;48.054;10.636;2022-09-29T07:39:54;2.53;;;2.05;;
37203;SDS011;23098;48.054;10.636;2022-09-29T07:42:19;2.95;;;2.28;;
37203;SDS011;23098;48.054;10.636;2022-09-29T07:44:45;4.63;;;2.17;;
37203;SDS011;23098;48.054;10.636;2022-09-29T07:47:11;3.20;;;2.38;;
37203;SDS011;23098;48.054;10.636;2022-09-29T07:49:37;6.57;;;3.00;;
37203;SDS011;23098;48.054;10.636;2022-09-29T07:52:03;6.03;;;3.30;;
37203;SDS011;23098;48.054;10.636;2022-09-29T07:54:29;4.85;;;3.50;;
37203;SDS011;23098;48.054;10.636;2022-09-29T07:56:56;5.30;;;3.03;;
37203;SDS011;23098;48.054;10.636;2022-09-29T07:59:24;3.28;;;2.38;;
37203;SDS011;23098;48.054;10.636;2022-09-29T08:01:50;3.72;;;2.72;;
37203;SDS011;23098;48.054;10.636;2022-09-29T08:04:17;4.55;;;2.33;;
37203;SDS011;23098;48.054;10.636;2022-09-29T08:06:42;2.75;;;2.20;;
37203;SDS011;23098;48.054;10.636;2022-09-29T08:09:08;4.43;;;2.45;;
37203;SDS011;23098;48.054;10.636;2022-09-29T08:11:38;6.80;;;2.50;;
37203;SDS011;23098;48.054;10.636;2022-09-29T08:14:05;3.28;;;2.42;;
37203;SDS011;23098;48.054;10.636;2022-09-29T08:16:31;4.32;;;2.53;;
37203;SDS011;23098;48.054;10.636;2022-09-29T08:18:58;5.90;;;2.72;;
37203;SDS011;23098;48.054;10.636;2022-09-29T08:21:24;3.97;;;2.80;;
37203;SDS011;23098;48.054;10.636;2022-09-29T08:23:50;4.40;;;2.70;;
37203;SDS011;23098;48.054;10.636;2022-09-29T08:26:17;4.63;;;2.70;;
37203;SDS011;23098;48.054;10.636;2022-09-29T08:28:47;3.92;;;2.40;;
37203;SDS011;23098;48.054;10.636;2022-09-29T08:31:14;2.28;;;2.08;;
37203;SDS011;23098;48.054;10.636;2022-09-29T08:33:45;3.00;;;2.40;;
37203;SDS011;23098;48.054;10.636;2022-09-29T08:36:12;4.45;;;2.78;;
37203;SDS011;23098;48.054;10.636;2022-09-29T08:38:42;3.50;;;2.42;;
37203;SDS011;23098;48.054;10.636;2022-09-29T08:41:14;3.00;;;2.43;;
37203;SDS011;23098;48.054;10.636;2022-09-29T08:44:02;3.60;;;2.60;;
37203;SDS011;23098;48.054;10.636;2022-09-29T08:46:40;5.60;;;2.60;;
37203;SDS011;23098;48.054;10.636;2022-09-29T08:49:15;2.45;;;1.92;;
37203;SDS011;23098;48.054;10.636;2022-09-29T08:51:47;2.20;;;1.70;;
37203;SDS011;23098;48.054;10.636;2022-09-29T08:56:52;4.00;;;1.20;;
37203;SDS011;23098;48.054;10.636;2022-09-29T08:59:18;1.48;;;1.38;;
37203;SDS011;23098;48.054;10.636;2022-09-29T09:01:48;1.50;;;1.40;;
37203;SDS011;23098;48.054;10.636;2022-09-29T09:10:14;1.83;;;1.50;;
37203;SDS011;23098;48.054;10.636;2022-09-29T09:23:26;2.63;;;1.70;;
37203;SDS011;23098;48.054;10.636;2022-09-29T09:26:16;4.35;;;1.70;;
37203;SDS011;23098;48.054;10.636;2022-09-29T09:28:44;3.25;;;2.00;;
37203;SDS011;23098;48.054;10.636;2022-09-29T09:31:24;2.67;;;1.65;;
37203;SDS011;23098;48.054;10.636;2022-09-29T09:34:05;1.58;;;1.48;;
37203;SDS011;23098;48.054;10.636;2022-09-29T09:36:39;3.28;;;1.60;;
37203;SDS011;23098;48.054;10.636;2022-09-29T09:41:39;1.33;;;0.90;;
37203;SDS011;23098;48.054;10.636;2022-09-29T09:44:11;1.27;;;0.93;;
37203;SDS011;23098;48.054;10.636;2022-09-29T09:46:58;1.48;;;1.00;;
37203;SDS011;23098;48.054;10.636;2022-09-29T09:49:36;1.25;;;0.90;;
37203;SDS011;23098;48.054;10.636;2022-09-29T09:52:11;2.92;;;1.67;;
37203;SDS011;23098;48.054;10.636;2022-09-29T09:54:58;0.95;;;0.95;;
37203;SDS011;23098;48.054;10.636;2022-09-29T10:00:53;0.82;;;0.80;;
37203;SDS011;23098;48.054;10.636;2022-09-29T10:03:22;1.33;;;1.00;;
37203;SDS011;23098;48.054;10.636;2022-09-29T10:05:48;1.92;;;1.38;;
37203;SDS011;23098;48.054;10.636;2022-09-29T10:08:17;1.45;;;1.20;;
37203;SDS011;23098;48.054;10.636;2022-09-29T10:10:53;1.10;;;1.00;;
37203;SDS011;23098;48.054;10.636;2022-09-29T10:13:20;0.90;;;0.80;;
37203;SDS011;23098;48.054;10.636;2022-09-29T10:15:55;0.85;;;0.80;;
37203;SDS011;23098;48.054;10.636;2022-09-29T10:18:42;1.10;;;0.90;;
37203;SDS011;23098;48.054;10.636;2022-09-29T10:24:19;1.33;;;1.10;;
37203;SDS011;23098;48.054;10.636;2022-09-29T10:26:52;1.02;;;0.93;;
37203;SDS011;23098;48.054;10.636;2022-09-29T10:29:37;1.60;;;1.08;;
37203;SDS011;23098;48.054;10.636;2022-09-29T10:32:31;1.23;;;1.10;;
37203;SDS011;23098;48.054;10.636;2022-09-29T10:35:07;2.30;;;1.58;;
37203;SDS011;23098;48.054;10.636;2022-09-29T10:37:42;1.05;;;0.95;;
37203;SDS011;23098;48.054;10.636;2022-09-29T10:40:13;1.08;;;0.98;;
37203;SDS011;23098;48.054;10.636;2022-09-29T10:42:45;1.70;;;1.00;;
37203;SDS011;23098;48.054;10.636;2022-09-29T10:48:08;1.63;;;1.30;;
37203;SDS011;23098;48.054;10.636;2022-09-29T10:50:34;2.05;;;1.33;;
37203;SDS011;23098;48.054;10.636;2022-09-29T10:55:50;3.05;;;2.08;;
37203;SDS011;23098;48.054;10.636;2022-09-29T10:58:23;1.60;;;1.17;;
37203;SDS011;23098;48.054;10.636;2022-09-29T11:01:11;2.75;;;1.20;;
37203;SDS011;23098;48.054;10.636;2022-09-29T11:03:39;1.63;;;1.10;;
37203;SDS011;23098;48.054;10.636;2022-09-29T11:06:11;1.90;;;1.40;;
37203;SDS011;23098;48.054;10.636;2022-09-29T11:11:29;4.35;;;1.40;;
37203;SDS011;23098;48.054;10.636;2022-09-29T11:13:56;1.40;;;1.05;;
37203;SDS011;23098;48.054;10.636;2022-09-29T11:16:25;1.35;;;1.20;;
37203;SDS011;23098;48.054;10.636;2022-09-29T11:18:58;4.10;;;1.40;;
37203;SDS011;23098;48.054;10.636;2022-09-29T11:30:19;1.40;;;1.00;;
37203;SDS011;23098;48.054;10.636;2022-09-29T11:38:25;1.80;;;1.10;;
37203;SDS011;23098;48.054;10.636;2022-09-29T11:40:59;1.58;;;1.30;;
37203;SDS011;23098;48.054;10.636;2022-09-29T11:43:40;1.77;;;1.30;;
37203;SDS011;23098;48.054;10.636;2022-09-29T11:54:41;2.72;;;1.63;;
37203;SDS011;23098;48.054;10.636;2022-09-29T12:00:17;2.50;;;1.75;;
37203;SDS011;23098;48.054;10.636;2022-09-29T12:08:19;4.47;;;2.63;;
37203;SDS011;23098;48.054;10.636;2022-09-29T12:12:06;2.90;;;2.05;;
37203;SDS011;23098;48.054;10.636;2022-09-29T12:14:08;3.78;;;2.40;;
37203;SDS011;23098;48.054;10.636;2022-09-29T12:16:45;2.60;;;1.90;;
37203;SDS011;23098;48.054;10.636;2022-09-29T12:19:17;2.83;;;2.10;;
37203;SDS011;23098;48.054;10.636;2022-09-29T12:21:48;3.60;;;2.20;;
37203;SDS011;23098;48.054;10.636;2022-09-29T12:24:18;2.33;;;2.05;;
37203;SDS011;23098;48.054;10.636;2022-09-29T12:26:49;2.13;;;1.80;;
37203;SDS011;23098;48.054;10.636;2022-09-29T12:34:58;2.50;;;1.67;;
37203;SDS011;23098;48.054;10.636;2022-09-29T12:37:30;1.10;;;1.00;;
37203;SDS011;23098;48.054;10.636;2022-09-29T12:40:08;1.13;;;1.00;;
37203;SDS011;23098;48.054;10.636;2022-09-29T12:51:02;1.95;;;1.30;;
37203;SDS011;23098;48.054;10.636;2022-09-29T12:53:34;2.97;;;1.73;;
37203;SDS011;23098;48.054;10.636;2022-09-29T12:58:46;2.83;;;2.00;;
37203;SDS011;23098;48.054;10.636;2022-09-29T13:06:57;2.47;;;1.70;;
37203;SDS011;23098;48.054;10.636;2022-09-29T13:21:19;1.70;;;1.13;;
37203;SDS011;23098;48.054;10.636;2022-09-29T13:26:30;1.55;;;1.30;;
37203;SDS011;23098;48.054;10.636;2022-09-29T13:29:00;2.00;;;1.33;;
37203;SDS011;23098;48.054;10.636;2022-09-29T13:31:35;2.22;;;1.77;;
37203;SDS011;23098;48.054;10.636;2022-09-29T13:34:03;1.60;;;1.50;;
37203;SDS011;23098;48.054;10.636;2022-09-29T13:36:35;1.88;;;1.63;;
37203;SDS011;23098;48.054;10.636;2022-09-29T13:39:04;2.67;;;1.80;;
37203;SDS011;23098;48.054;10.636;2022-09-29T13:41:33;3.40;;;2.97;;
37203;SDS011;23098;48.054;10.636;2022-09-29T13:51:58;2.67;;;1.92;;
37203;SDS011;23098;48.054;10.636;2022-09-29T13:54:39;5.57;;;3.90;;
37203;SDS011;23098;48.054;10.636;2022-09-29T13:57:16;2.80;;;2.15;;
37203;SDS011;23098;48.054;10.636;2022-09-29T14:02:26;3.35;;;2.08;;
37203;SDS011;23098;48.054;10.636;2022-09-29T14:10:29;3.97;;;2.70;;
37203;SDS011;23098;48.054;10.636;2022-09-29T14:15:43;3.50;;;2.45;;
37203;SDS011;23098;48.054;10.636;2022-09-29T14:20:59;1.85;;;1.10;;
37203;SDS011;23098;48.054;10.636;2022-09-29T14:28:53;2.13;;;1.20;;
37203;SDS011;23098;48.054;10.636;2022-09-29T14:31:21;3.90;;;2.00;;
37203;SDS011;23098;48.054;10.636;2022-09-29T14:33:48;2.83;;;2.25;;
37203;SDS011;23098;48.054;10.636;2022-09-29T14:36:18;4.28;;;3.40;;
37203;SDS011;23098;48.054;10.636;2022-09-29T14:38:46;1.83;;;1.13;;
37203;SDS011;23098;48.054;10.636;2022-09-29T14:41:28;2.42;;;1.40;;
37203;SDS011;23098;48.054;10.636;2022-09-29T14:44:07;1.10;;;1.00;;
37203;SDS011;23098;48.054;10.636;2022-09-29T14:46:50;3.47;;;3.17;;
37203;SDS011;23098;48.054;10.636;2022-09-29T15:01:01;4.10;;;1.65;;
37203;SDS011;23098;48.054;10.636;2022-09-29T15:03:36;3.67;;;2.50;;
37203;SDS011;23098;48.054;10.636;2022-09-29T15:06:18;3.92;;;1.80;;
37203;SDS011;23098;48.054;10.636;2022-09-29T15:08:57;2.33;;;1.92;;
37203;SDS011;23098;48.054;10.636;2022-09-29T15:14:24;1.95;;;1.73;;
37203;SDS011;23098;48.054;10.636;2022-09-29T15:27:33;1.95;;;1.75;;
37203;SDS011;23098;48.054;10.636;2022-09-29T15:30:02;2.28;;;1.13;;
37203;SDS011;23098;48.054;10.636;2022-09-29T15:32:29;1.90;;;1.30;;
37203;SDS011;23098;48.054;10.636;2022-09-29T15:35:04;1.75;;;1.15;;
37203;SDS011;23098;48.054;10.636;2022-09-29T15:40:19;1.38;;;1.20;;
37203;SDS011;23098;48.054;10.636;2022-09-29T15:42:48;2.00;;;1.30;;
37203;SDS011;23098;48.054;10.636;2022-09-29T15:47:44;1.67;;;1.38;;
37203;SDS011;23098;48.054;10.636;2022-09-29T15:50:20;2.45;;;1.95;;
37203;SDS011;23098;48.054;10.636;2022-09-29T15:52:47;5.45;;;3.85;;
37203;SDS011;23098;48.054;10.636;2022-09-29T15:55:15;5.95;;;4.00;;
37203;SDS011;23098;48.054;10.636;2022-09-29T15:57:49;3.35;;;2.30;;
37203;SDS011;23098;48.054;10.636;2022-09-29T16:06:10;6.93;;;4.70;;
37203;SDS011;23098;48.054;10.636;2022-09-29T16:08:52;5.30;;;3.88;;
37203;SDS011;23098;48.054;10.636;2022-09-29T16:11:29;8.27;;;6.25;;
37203;SDS011;23098;48.054;10.636;2022-09-29T16:14:01;7.53;;;6.72;;
37203;SDS011;23098;48.054;10.636;2022-09-29T16:16:32;6.50;;;5.32;;
37203;SDS011;23098;48.054;10.636;2022-09-29T16:19:29;10.57;;;7.22;;
37203;SDS011;23098;48.054;10.636;2022-09-29T16:21:56;11.30;;;8.20;;
37203;SDS011;23098;48.054;10.636;2022-09-29T16:24:26;31.55;;;15.23;;
37203;SDS011;23098;48.054;10.636;2022-09-29T16:26:55;61.90;;;24.80;;
37203;SDS011;23098;48.054;10.636;2022-09-29T16:29:34;43.03;;;20.33;;
37203;SDS011;23098;48.054;10.636;2022-09-29T16:32:34;16.95;;;8.77;;
37203;SDS011;23098;48.054;10.636;2022-09-29T16:34:56;11.27;;;7.22;;
37203;SDS011;23098;48.054;10.636;2022-09-29T16:38:09;5.82;;;4.68;;
37203;SDS011;23098;48.054;10.636;2022-09-29T16:40:41;5.15;;;4.05;;
37203;SDS011;23098;48.054;10.636;2022-09-29T16:43:24;3.45;;;2.85;;
37203;SDS011;23098;48.054;10.636;2022-09-29T16:45:56;7.18;;;4.53;;
37203;SDS011;23098;48.054;10.636;2022-09-29T16:48:24;7.82;;;5.10;;
37203;SDS011;23098;48.054;10.636;2022-09-29T16:50:54;5.72;;;4.45;;
37203;SDS011;23098;48.054;10.636;2022-09-29T16:53:31;7.90;;;5.15;;
37203;SDS011;23098;48.054;10.636;2022-09-29T16:56:08;11.55;;;6.63;;
37203;SDS011;23098;48.054;10.636;2022-09-29T16:58:42;10.23;;;6.28;;
37203;SDS011;23098;48.054;10.636;2022-09-29T17:01:09;9.07;;;5.30;;
37203;SDS011;23098;48.054;10.636;2022-09-29T17:03:37;3.20;;;2.40;;
37203;SDS011;23098;48.054;10.636;2022-09-29T17:06:03;3.38;;;1.75;;
37203;SDS011;23098;48.054;10.636;2022-09-29T17:08:29;3.00;;;1.95;;
37203;SDS011;23098;48.054;10.636;2022-09-29T17:10:57;7.72;;;4.97;;
37203;SDS011;23098;48.054;10.636;2022-09-29T17:13:22;20.25;;;12.75;;
37203;SDS011;23098;48.054;10.636;2022-09-29T17:15:51;24.00;;;14.60;;
37203;SDS011;23098;48.054;10.636;2022-09-29T17:18:18;27.17;;;16.35;;
37203;SDS011;23098;48.054;10.636;2022-09-29T17:20:44;31.85;;;18.38;;
37203;SDS011;23098;48.054;10.636;2022-09-29T17:23:10;26.15;;;17.05;;
37203;SDS011;23098;48.054;10.636;2022-09-29T17:25:40;24.55;;;13.05;;
37203;SDS011;23098;48.054;10.636;2022-09-29T17:28:12;12.50;;;7.50;;
37203;SDS011;23098;48.054;10.636;2022-09-29T17:30:41;7.60;;;5.40;;
37203;SDS011;23098;48.054;10.636;2022-09-29T17:33:09;6.90;;;5.15;;
37203;SDS011;23098;48.054;10.636;2022-09-29T17:35:38;8.32;;;5.57;;
37203;SDS011;23098;48.054;10.636;2022-09-29T17:38:05;7.93;;;6.30;;
37203;SDS011;23098;48.054;10.636;2022-09-29T17:43:07;10.13;;;6.35;;
37203;SDS011;23098;48.054;10.636;2022-09-29T17:45:33;5.80;;;5.20;;
37203;SDS011;23098;48.054;10.636;2022-09-29T17:47:59;5.68;;;4.80;;
37203;SDS011;23098;48.054;10.636;2022-09-29T17:50:27;5.65;;;4.72;;
37203;SDS011;23098;48.054;10.636;2022-09-29T17:52:56;8.37;;;5.60;;
37203;SDS011;23098;48.054;10.636;2022-09-29T17:55:23;10.25;;;7.10;;
37203;SDS011;23098;48.054;10.636;2022-09-29T17:57:50;16.42;;;9.60;;
37203;SDS011;23098;48.054;10.636;2022-09-29T18:00:37;10.05;;;8.23;;
37203;SDS011;23098;48.054;10.636;2022-09-29T18:03:04;9.25;;;6.78;;
37203;SDS011;23098;48.054;10.636;2022-09-29T18:05:30;15.00;;;8.30;;
37203;SDS011;23098;48.054;10.636;2022-09-29T18:07:57;13.00;;;8.20;;
37203;SDS011;23098;48.054;10.636;2022-09-29T18:10:27;10.32;;;7.45;;
37203;SDS011;23098;48.054;10.636;2022-09-29T18:12:53;9.88;;;7.15;;
37203;SDS011;23098;48.054;10.636;2022-09-29T18:15:19;13.43;;;9.10;;
37203;SDS011;23098;48.054;10.636;2022-09-29T18:17:45;18.60;;;11.40;;
37203;SDS011;23098;48.054;10.636;2022-09-29T18:20:15;12.82;;;9.38;;
37203;SDS011;23098;48.054;10.636;2022-09-29T18:22:43;13.77;;;9.43;;
37203;SDS011;23098;48.054;10.636;2022-09-29T18:25:12;12.27;;;8.93;;